sensor_id;sensor_type;location;lat;lon;timestamp;pressure;altitude;pressure_sealevel;temperature
27715;BMP280;16051;53.024;8.630;2022-09-23T00:02:52;101913.09;;;8.90
27715;BMP280;16051;53.024;8.630;2022-09-23T00:06:54;101904.56;;;8.84
27715;BMP280;16051;53.024;8.630;2022-09-23T00:11:06;101910.50;;;8.83
27715;BMP280;16051;53.024;8.630;2022-09-23T00:15:09;101907.50;;;8.77
27715;BMP280;16051;53.024;8.630;2022-09-23T00:19:12;101891.94;;;8.71
27715;BMP280;16051;53.024;8.630;2022-09-23T00:23:14;101896.75;;;8.67
27715;BMP280;16051;53.024;8.630;2022-09-23T00:27:17;101885.72;;;8.67
27715;BMP280;16051;53.024;8.630;2022-09-23T00:31:32;101888.38;;;8.70
27715;BMP280;16051;53.024;8.630;2022-09-23T00:35:34;101876.19;;;8.71
27715;BMP280;16051;53.024;8.630;2022-09-23T00:39:38;101887.00;;;8.62
27715;BMP280;16051;53.024;8.630;2022-09-23T00:43:46;101884.50;;;8.52
27715;BMP280;16051;53.024;8.630;2022-09-23T00:47:52;101870.56;;;8.59
27715;BMP280;16051;53.024;8.630;2022-09-23T00:52:08;101874.34;;;8.49
27715;BMP280;16051;53.024;8.630;2022-09-23T00:56:14;101862.56;;;8.48
27715;BMP280;16051;53.024;8.630;2022-09-23T01:00:18;101865.16;;;8.39
27715;BMP280;16051;53.024;8.630;2022-09-23T01:04:21;101863.16;;;8.39
27715;BMP280;16051;53.024;8.630;2022-09-23T01:08:25;101852.66;;;8.34
27715;BMP280;16051;53.024;8.630;2022-09-23T01:12:48;101859.28;;;8.37
27715;BMP280;16051;53.024;8.630;2022-09-23T01:17:10;101843.88;;;8.39
27715;BMP280;16051;53.024;8.630;2022-09-23T01:21:33;101834.41;;;8.40
27715;BMP280;16051;53.024;8.630;2022-09-23T01:26:03;101841.66;;;8.34
27715;BMP280;16051;53.024;8.630;2022-09-23T01:35:04;101839.38;;;8.29
27715;BMP280;16051;53.024;8.630;2022-09-23T01:39:14;101833.94;;;8.26
27715;BMP280;16051;53.024;8.630;2022-09-23T01:43:24;101833.31;;;8.18
27715;BMP280;16051;53.024;8.630;2022-09-23T01:47:33;101835.13;;;8.25
27715;BMP280;16051;53.024;8.630;2022-09-23T01:51:44;101832.47;;;8.21
27715;BMP280;16051;53.024;8.630;2022-09-23T01:56:02;101829.38;;;8.19
27715;BMP280;16051;53.024;8.630;2022-09-23T02:00:12;101823.19;;;8.15
27715;BMP280;16051;53.024;8.630;2022-09-23T02:04:20;101824.72;;;8.16
27715;BMP280;16051;53.024;8.630;2022-09-23T02:08:33;101820.19;;;8.26
27715;BMP280;16051;53.024;8.630;2022-09-23T02:12:39;101817.09;;;8.24
27715;BMP280;16051;53.024;8.630;2022-09-23T02:16:51;101812.94;;;8.16
27715;BMP280;16051;53.024;8.630;2022-09-23T02:21:02;101812.25;;;8.12
27715;BMP280;16051;53.024;8.630;2022-09-23T02:25:08;101808.72;;;8.11
27715;BMP280;16051;53.024;8.630;2022-09-23T02:29:20;101806.56;;;8.03
27715;BMP280;16051;53.024;8.630;2022-09-23T02:33:30;101811.31;;;8.02
27715;BMP280;16051;53.024;8.630;2022-09-23T02:37:53;101797.09;;;8.04
27715;BMP280;16051;53.024;8.630;2022-09-23T02:42:05;101800.63;;;8.04
27715;BMP280;16051;53.024;8.630;2022-09-23T02:46:09;101798.66;;;8.05
27715;BMP280;16051;53.024;8.630;2022-09-23T02:50:12;101786.63;;;7.99
27715;BMP280;16051;53.024;8.630;2022-09-23T02:54:18;101792.53;;;7.97
27715;BMP280;16051;53.024;8.630;2022-09-23T02:58:22;101783.09;;;7.98
27715;BMP280;16051;53.024;8.630;2022-09-23T03:02:48;101787.47;;;7.96
27715;BMP280;16051;53.024;8.630;2022-09-23T03:07:01;101783.66;;;7.89
27715;BMP280;16051;53.024;8.630;2022-09-23T03:11:08;101774.22;;;7.90
27715;BMP280;16051;53.024;8.630;2022-09-23T03:15:25;101774.63;;;7.89
27715;BMP280;16051;53.024;8.630;2022-09-23T03:19:34;101782.56;;;7.87
27715;BMP280;16051;53.024;8.630;2022-09-23T03:23:54;101777.13;;;7.83
27715;BMP280;16051;53.024;8.630;2022-09-23T03:28:00;101773.19;;;7.84
27715;BMP280;16051;53.024;8.630;2022-09-23T03:32:05;101768.97;;;7.80
27715;BMP280;16051;53.024;8.630;2022-09-23T03:36:11;101760.72;;;7.80
27715;BMP280;16051;53.024;8.630;2022-09-23T03:40:38;101757.59;;;7.78
27715;BMP280;16051;53.024;8.630;2022-09-23T03:44:46;101743.91;;;7.74
27715;BMP280;16051;53.024;8.630;2022-09-23T03:48:49;101746.66;;;7.74
27715;BMP280;16051;53.024;8.630;2022-09-23T03:52:52;101752.25;;;7.71
27715;BMP280;16051;53.024;8.630;2022-09-23T03:56:55;101747.97;;;7.70
27715;BMP280;16051;53.024;8.630;2022-09-23T04:00:58;101742.56;;;7.66
27715;BMP280;16051;53.024;8.630;2022-09-23T04:05:02;101736.59;;;7.68
27715;BMP280;16051;53.024;8.630;2022-09-23T04:09:04;101735.75;;;7.71
27715;BMP280;16051;53.024;8.630;2022-09-23T04:13:06;101723.06;;;7.77
27715;BMP280;16051;53.024;8.630;2022-09-23T04:17:09;101724.88;;;7.83
27715;BMP280;16051;53.024;8.630;2022-09-23T04:21:27;101726.84;;;7.83
27715;BMP280;16051;53.024;8.630;2022-09-23T04:25:31;101722.38;;;7.89
27715;BMP280;16051;53.024;8.630;2022-09-23T04:29:33;101715.91;;;7.79
27715;BMP280;16051;53.024;8.630;2022-09-23T04:33:35;101707.84;;;7.72
27715;BMP280;16051;53.024;8.630;2022-09-23T04:37:39;101711.84;;;7.68
27715;BMP280;16051;53.024;8.630;2022-09-23T04:41:41;101709.19;;;7.64
27715;BMP280;16051;53.024;8.630;2022-09-23T04:45:44;101699.47;;;7.60
27715;BMP280;16051;53.024;8.630;2022-09-23T04:49:46;101708.56;;;7.57
27715;BMP280;16051;53.024;8.630;2022-09-23T04:53:52;101704.78;;;7.51
27715;BMP280;16051;53.024;8.630;2022-09-23T04:57:55;101705.66;;;7.48
27715;BMP280;16051;53.024;8.630;2022-09-23T05:01:59;101698.66;;;7.43
27715;BMP280;16051;53.024;8.630;2022-09-23T05:06:01;101690.91;;;7.38
27715;BMP280;16051;53.024;8.630;2022-09-23T05:10:07;101681.28;;;7.30
27715;BMP280;16051;53.024;8.630;2022-09-23T05:14:09;101699.22;;;7.34
27715;BMP280;16051;53.024;8.630;2022-09-23T05:18:11;101690.66;;;7.32
27715;BMP280;16051;53.024;8.630;2022-09-23T05:22:13;101687.56;;;7.30
27715;BMP280;16051;53.024;8.630;2022-09-23T05:26:17;101693.13;;;7.27
27715;BMP280;16051;53.024;8.630;2022-09-23T05:30:30;101687.28;;;7.25
27715;BMP280;16051;53.024;8.630;2022-09-23T05:34:32;101693.63;;;7.22
27715;BMP280;16051;53.024;8.630;2022-09-23T05:38:34;101701.53;;;7.20
27715;BMP280;16051;53.024;8.630;2022-09-23T05:42:38;101696.44;;;7.18
27715;BMP280;16051;53.024;8.630;2022-09-23T05:47:11;101689.41;;;7.17
27715;BMP280;16051;53.024;8.630;2022-09-23T05:51:16;101690.97;;;7.18
27715;BMP280;16051;53.024;8.630;2022-09-23T05:55:37;101693.78;;;7.15
27715;BMP280;16051;53.024;8.630;2022-09-23T05:59:40;101691.38;;;7.17
27715;BMP280;16051;53.024;8.630;2022-09-23T06:03:48;101685.47;;;7.18
27715;BMP280;16051;53.024;8.630;2022-09-23T06:07:59;101689.78;;;7.19
27715;BMP280;16051;53.024;8.630;2022-09-23T06:12:02;101690.09;;;7.21
27715;BMP280;16051;53.024;8.630;2022-09-23T06:16:08;101697.84;;;7.26
27715;BMP280;16051;53.024;8.630;2022-09-23T06:20:11;101705.94;;;7.33
27715;BMP280;16051;53.024;8.630;2022-09-23T06:24:14;101697.88;;;7.42
27715;BMP280;16051;53.024;8.630;2022-09-23T06:28:17;101703.94;;;7.54
27715;BMP280;16051;53.024;8.630;2022-09-23T06:32:21;101713.09;;;7.67
27715;BMP280;16051;53.024;8.630;2022-09-23T06:36:23;101713.94;;;7.80
27715;BMP280;16051;53.024;8.630;2022-09-23T06:40:25;101714.81;;;7.93
27715;BMP280;16051;53.024;8.630;2022-09-23T06:44:28;101716.81;;;8.09
27715;BMP280;16051;53.024;8.630;2022-09-23T06:48:33;101713.19;;;8.28
27715;BMP280;16051;53.024;8.630;2022-09-23T06:52:35;101706.13;;;8.43
27715;BMP280;16051;53.024;8.630;2022-09-23T06:56:39;101709.28;;;8.58
27715;BMP280;16051;53.024;8.630;2022-09-23T07:00:41;101695.22;;;8.68
27715;BMP280;16051;53.024;8.630;2022-09-23T07:04:46;101697.16;;;8.84
27715;BMP280;16051;53.024;8.630;2022-09-23T07:08:48;101688.59;;;8.95
27715;BMP280;16051;53.024;8.630;2022-09-23T07:12:52;101703.53;;;9.10
27715;BMP280;16051;53.024;8.630;2022-09-23T07:16:55;101700.81;;;9.22
27715;BMP280;16051;53.024;8.630;2022-09-23T07:21:08;101705.56;;;9.34
27715;BMP280;16051;53.024;8.630;2022-09-23T07:25:11;101707.69;;;9.43
27715;BMP280;16051;53.024;8.630;2022-09-23T07:29:13;101704.25;;;9.52
27715;BMP280;16051;53.024;8.630;2022-09-23T07:33:19;101714.31;;;9.58
27715;BMP280;16051;53.024;8.630;2022-09-23T07:37:23;101712.44;;;9.68
27715;BMP280;16051;53.024;8.630;2022-09-23T07:41:26;101696.63;;;9.81
27715;BMP280;16051;53.024;8.630;2022-09-23T07:45:29;101695.88;;;9.93
27715;BMP280;16051;53.024;8.630;2022-09-23T07:49:49;101694.50;;;10.10
27715;BMP280;16051;53.024;8.630;2022-09-23T07:53:55;101685.34;;;10.26
27715;BMP280;16051;53.024;8.630;2022-09-23T07:57:58;101687.56;;;10.53
27715;BMP280;16051;53.024;8.630;2022-09-23T08:02:00;101679.75;;;10.73
27715;BMP280;16051;53.024;8.630;2022-09-23T08:06:08;101677.66;;;10.77
27715;BMP280;16051;53.024;8.630;2022-09-23T08:10:23;101679.28;;;10.96
27715;BMP280;16051;53.024;8.630;2022-09-23T08:14:32;101687.84;;;11.11
27715;BMP280;16051;53.024;8.630;2022-09-23T08:18:43;101678.13;;;11.28
27715;BMP280;16051;53.024;8.630;2022-09-23T08:22:55;101681.47;;;11.54
27715;BMP280;16051;53.024;8.630;2022-09-23T08:26:58;101681.09;;;11.73
27715;BMP280;16051;53.024;8.630;2022-09-23T08:31:13;101677.19;;;11.93
27715;BMP280;16051;53.024;8.630;2022-09-23T08:35:15;101675.66;;;12.10
27715;BMP280;16051;53.024;8.630;2022-09-23T08:39:19;101671.56;;;12.32
27715;BMP280;16051;53.024;8.630;2022-09-23T08:43:27;101677.41;;;12.62
27715;BMP280;16051;53.024;8.630;2022-09-23T08:47:52;101663.53;;;12.80
27715;BMP280;16051;53.024;8.630;2022-09-23T08:52:04;101670.56;;;12.99
27715;BMP280;16051;53.024;8.630;2022-09-23T08:56:13;101659.19;;;13.15
27715;BMP280;16051;53.024;8.630;2022-09-23T09:00:20;101661.91;;;13.34
27715;BMP280;16051;53.024;8.630;2022-09-23T09:04:29;101659.66;;;13.56
27715;BMP280;16051;53.024;8.630;2022-09-23T09:08:36;101659.69;;;13.79
27715;BMP280;16051;53.024;8.630;2022-09-23T09:12:43;101660.47;;;14.04
27715;BMP280;16051;53.024;8.630;2022-09-23T09:16:56;101651.25;;;14.21
27715;BMP280;16051;53.024;8.630;2022-09-23T09:21:10;101649.88;;;14.41
27715;BMP280;16051;53.024;8.630;2022-09-23T09:25:24;101643.22;;;14.62
27715;BMP280;16051;53.024;8.630;2022-09-23T09:29:37;101637.00;;;14.82
27715;BMP280;16051;53.024;8.630;2022-09-23T09:33:46;101630.69;;;14.96
27715;BMP280;16051;53.024;8.630;2022-09-23T09:37:51;101630.56;;;15.05
27715;BMP280;16051;53.024;8.630;2022-09-23T09:41:53;101630.47;;;15.14
27715;BMP280;16051;53.024;8.630;2022-09-23T09:46:12;101619.03;;;15.26
27715;BMP280;16051;53.024;8.630;2022-09-23T09:50:44;101618.66;;;15.34
27715;BMP280;16051;53.024;8.630;2022-09-23T09:54:47;101606.34;;;15.40
27715;BMP280;16051;53.024;8.630;2022-09-23T09:58:54;101606.25;;;15.49
27715;BMP280;16051;53.024;8.630;2022-09-23T10:03:00;101603.63;;;15.60
27715;BMP280;16051;53.024;8.630;2022-09-23T10:07:11;101588.25;;;15.65
27715;BMP280;16051;53.024;8.630;2022-09-23T10:11:16;101595.78;;;15.79
27715;BMP280;16051;53.024;8.630;2022-09-23T10:15:30;101589.16;;;15.97
27715;BMP280;16051;53.024;8.630;2022-09-23T10:19:37;101597.19;;;16.09
27715;BMP280;16051;53.024;8.630;2022-09-23T10:24:02;101592.22;;;16.19
27715;BMP280;16051;53.024;8.630;2022-09-23T10:28:44;101597.22;;;16.35
27715;BMP280;16051;53.024;8.630;2022-09-23T10:32:54;101594.59;;;16.52
27715;BMP280;16051;53.024;8.630;2022-09-23T10:37:02;101597.31;;;16.66
27715;BMP280;16051;53.024;8.630;2022-09-23T10:41:23;101598.94;;;16.79
27715;BMP280;16051;53.024;8.630;2022-09-23T10:45:49;101590.44;;;16.93
27715;BMP280;16051;53.024;8.630;2022-09-23T10:50:30;101586.00;;;17.07
27715;BMP280;16051;53.024;8.630;2022-09-23T10:54:48;101586.16;;;17.29
27715;BMP280;16051;53.024;8.630;2022-09-23T11:04:05;101569.66;;;17.68
27715;BMP280;16051;53.024;8.630;2022-09-23T11:09:00;101580.47;;;17.97
27715;BMP280;16051;53.024;8.630;2022-09-23T11:13:17;101570.09;;;18.20
27715;BMP280;16051;53.024;8.630;2022-09-23T11:17:52;101563.34;;;18.54
27715;BMP280;16051;53.024;8.630;2022-09-23T11:22:23;101561.84;;;18.76
27715;BMP280;16051;53.024;8.630;2022-09-23T11:26:44;101561.09;;;18.70
27715;BMP280;16051;53.024;8.630;2022-09-23T11:31:02;101546.31;;;18.63
27715;BMP280;16051;53.024;8.630;2022-09-23T11:35:16;101558.53;;;18.55
27715;BMP280;16051;53.024;8.630;2022-09-23T11:39:24;101543.53;;;18.58
27715;BMP280;16051;53.024;8.630;2022-09-23T11:43:33;101547.09;;;18.58
27715;BMP280;16051;53.024;8.630;2022-09-23T11:47:45;101543.00;;;18.59
27715;BMP280;16051;53.024;8.630;2022-09-23T11:52:03;101530.50;;;18.44
27715;BMP280;16051;53.024;8.630;2022-09-23T11:56:14;101527.44;;;18.31
27715;BMP280;16051;53.024;8.630;2022-09-23T12:00:20;101519.53;;;18.24
27715;BMP280;16051;53.024;8.630;2022-09-23T12:04:30;101518.78;;;18.17
27715;BMP280;16051;53.024;8.630;2022-09-23T12:08:36;101525.09;;;18.12
27715;BMP280;16051;53.024;8.630;2022-09-23T12:12:51;101518.50;;;18.10
27715;BMP280;16051;53.024;8.630;2022-09-23T12:22:01;101502.19;;;17.92
27715;BMP280;16051;53.024;8.630;2022-09-23T12:26:14;101515.34;;;17.80
27715;BMP280;16051;53.024;8.630;2022-09-23T12:30:20;101506.00;;;17.83
27715;BMP280;16051;53.024;8.630;2022-09-23T12:34:29;101513.09;;;17.84
27715;BMP280;16051;53.024;8.630;2022-09-23T12:38:45;101507.25;;;17.88
27715;BMP280;16051;53.024;8.630;2022-09-23T12:42:50;101505.25;;;17.94
27715;BMP280;16051;53.024;8.630;2022-09-23T12:47:29;101508.06;;;17.99
27715;BMP280;16051;53.024;8.630;2022-09-23T12:51:37;101505.53;;;18.01
27715;BMP280;16051;53.024;8.630;2022-09-23T12:56:15;101501.41;;;17.86
27715;BMP280;16051;53.024;8.630;2022-09-23T13:00:24;101490.44;;;17.77
27715;BMP280;16051;53.024;8.630;2022-09-23T13:04:34;101495.31;;;17.87
27715;BMP280;16051;53.024;8.630;2022-09-23T13:09:23;101493.84;;;17.97
27715;BMP280;16051;53.024;8.630;2022-09-23T13:13:31;101491.53;;;17.96
27715;BMP280;16051;53.024;8.630;2022-09-23T13:17:38;101490.53;;;18.04
27715;BMP280;16051;53.024;8.630;2022-09-23T13:22:04;101484.97;;;18.10
27715;BMP280;16051;53.024;8.630;2022-09-23T13:26:10;101485.22;;;18.01
27715;BMP280;16051;53.024;8.630;2022-09-23T13:30:18;101479.38;;;18.04
27715;BMP280;16051;53.024;8.630;2022-09-23T13:34:27;101475.25;;;17.83
27715;BMP280;16051;53.024;8.630;2022-09-23T13:38:31;101470.13;;;17.76
27715;BMP280;16051;53.024;8.630;2022-09-23T13:42:38;101470.84;;;17.65
27715;BMP280;16051;53.024;8.630;2022-09-23T13:46:51;101473.66;;;17.60
27715;BMP280;16051;53.024;8.630;2022-09-23T13:50:56;101471.53;;;17.49
27715;BMP280;16051;53.024;8.630;2022-09-23T13:55:25;101463.47;;;17.57
27715;BMP280;16051;53.024;8.630;2022-09-23T13:59:40;101476.84;;;17.47
27715;BMP280;16051;53.024;8.630;2022-09-23T14:04:18;101472.22;;;17.33
27715;BMP280;16051;53.024;8.630;2022-09-23T14:08:25;101465.13;;;17.32
27715;BMP280;16051;53.024;8.630;2022-09-23T14:12:30;101450.69;;;17.39
27715;BMP280;16051;53.024;8.630;2022-09-23T14:16:37;101448.63;;;17.34
27715;BMP280;16051;53.024;8.630;2022-09-23T14:20:49;101452.91;;;17.24
27715;BMP280;16051;53.024;8.630;2022-09-23T14:24:54;101449.03;;;17.16
27715;BMP280;16051;53.024;8.630;2022-09-23T14:28:57;101448.81;;;17.19
27715;BMP280;16051;53.024;8.630;2022-09-23T14:32:59;101445.53;;;17.21
27715;BMP280;16051;53.024;8.630;2022-09-23T14:37:20;101448.03;;;17.13
27715;BMP280;16051;53.024;8.630;2022-09-23T14:41:44;101438.63;;;17.11
27715;BMP280;16051;53.024;8.630;2022-09-23T14:45:51;101438.09;;;17.07
27715;BMP280;16051;53.024;8.630;2022-09-23T14:50:15;101440.06;;;17.01
27715;BMP280;16051;53.024;8.630;2022-09-23T14:54:43;101440.53;;;16.88
27715;BMP280;16051;53.024;8.630;2022-09-23T14:58:51;101441.44;;;16.74
27715;BMP280;16051;53.024;8.630;2022-09-23T15:02:59;101438.38;;;16.72
27715;BMP280;16051;53.024;8.630;2022-09-23T15:07:07;101437.53;;;16.60
27715;BMP280;16051;53.024;8.630;2022-09-23T15:11:17;101427.78;;;16.45
27715;BMP280;16051;53.024;8.630;2022-09-23T15:15:26;101423.66;;;16.40
27715;BMP280;16051;53.024;8.630;2022-09-23T15:19:29;101418.81;;;16.35
27715;BMP280;16051;53.024;8.630;2022-09-23T15:23:35;101414.44;;;16.29
27715;BMP280;16051;53.024;8.630;2022-09-23T15:28:00;101417.69;;;16.21
27715;BMP280;16051;53.024;8.630;2022-09-23T15:32:04;101414.09;;;16.15
27715;BMP280;16051;53.024;8.630;2022-09-23T15:36:17;101412.22;;;16.07
27715;BMP280;16051;53.024;8.630;2022-09-23T15:40:22;101413.19;;;15.98
27715;BMP280;16051;53.024;8.630;2022-09-23T15:44:24;101415.63;;;15.91
27715;BMP280;16051;53.024;8.630;2022-09-23T15:48:54;101419.63;;;15.84
27715;BMP280;16051;53.024;8.630;2022-09-23T15:52:57;101421.88;;;15.80
27715;BMP280;16051;53.024;8.630;2022-09-23T15:57:01;101415.19;;;15.72
27715;BMP280;16051;53.024;8.630;2022-09-23T16:01:04;101405.25;;;15.65
27715;BMP280;16051;53.024;8.630;2022-09-23T16:05:22;101414.44;;;15.71
27715;BMP280;16051;53.024;8.630;2022-09-23T16:09:26;101403.97;;;15.66
27715;BMP280;16051;53.024;8.630;2022-09-23T16:13:46;101398.69;;;15.68
27715;BMP280;16051;53.024;8.630;2022-09-23T16:17:49;101395.09;;;15.62
27715;BMP280;16051;53.024;8.630;2022-09-23T16:21:53;101395.84;;;15.63
27715;BMP280;16051;53.024;8.630;2022-09-23T16:25:55;101398.38;;;15.61
27715;BMP280;16051;53.024;8.630;2022-09-23T16:29:57;101391.97;;;15.55
27715;BMP280;16051;53.024;8.630;2022-09-23T16:34:09;101392.69;;;15.50
27715;BMP280;16051;53.024;8.630;2022-09-23T16:38:12;101383.47;;;15.44
27715;BMP280;16051;53.024;8.630;2022-09-23T16:42:15;101388.97;;;15.38
27715;BMP280;16051;53.024;8.630;2022-09-23T16:46:18;101384.13;;;15.33
27715;BMP280;16051;53.024;8.630;2022-09-23T16:50:22;101383.34;;;15.33
27715;BMP280;16051;53.024;8.630;2022-09-23T16:54:49;101374.66;;;15.25
27715;BMP280;16051;53.024;8.630;2022-09-23T16:58:51;101375.34;;;15.20
27715;BMP280;16051;53.024;8.630;2022-09-23T17:02:53;101376.81;;;15.15
27715;BMP280;16051;53.024;8.630;2022-09-23T17:07:14;101364.38;;;15.11
27715;BMP280;16051;53.024;8.630;2022-09-23T17:11:18;101375.69;;;15.07
27715;BMP280;16051;53.024;8.630;2022-09-23T17:15:21;101373.69;;;15.08
27715;BMP280;16051;53.024;8.630;2022-09-23T17:19:23;101379.94;;;15.03
27715;BMP280;16051;53.024;8.630;2022-09-23T17:23:27;101376.88;;;15.01
27715;BMP280;16051;53.024;8.630;2022-09-23T17:27:32;101383.41;;;14.98
27715;BMP280;16051;53.024;8.630;2022-09-23T17:31:35;101381.59;;;14.95
27715;BMP280;16051;53.024;8.630;2022-09-23T17:35:38;101383.34;;;14.92
27715;BMP280;16051;53.024;8.630;2022-09-23T17:39:40;101377.97;;;14.89
27715;BMP280;16051;53.024;8.630;2022-09-23T17:43:44;101372.84;;;14.82
27715;BMP280;16051;53.024;8.630;2022-09-23T17:47:51;101372.28;;;14.77
27715;BMP280;16051;53.024;8.630;2022-09-23T17:51:54;101375.72;;;14.72
27715;BMP280;16051;53.024;8.630;2022-09-23T17:56:12;101377.97;;;14.68
27715;BMP280;16051;53.024;8.630;2022-09-23T18:00:24;101373.84;;;14.64
27715;BMP280;16051;53.024;8.630;2022-09-23T18:04:41;101380.84;;;14.59
27715;BMP280;16051;53.024;8.630;2022-09-23T18:08:51;101378.28;;;14.56
27715;BMP280;16051;53.024;8.630;2022-09-23T18:12:57;101378.22;;;14.50
27715;BMP280;16051;53.024;8.630;2022-09-23T18:17:02;101379.66;;;14.46
27715;BMP280;16051;53.024;8.630;2022-09-23T18:21:04;101385.97;;;14.46
27715;BMP280;16051;53.024;8.630;2022-09-23T18:25:13;101380.31;;;14.41
27715;BMP280;16051;53.024;8.630;2022-09-23T18:29:21;101379.84;;;14.42
27715;BMP280;16051;53.024;8.630;2022-09-23T18:33:25;101380.50;;;14.37
27715;BMP280;16051;53.024;8.630;2022-09-23T18:37:27;101370.06;;;14.32
27715;BMP280;16051;53.024;8.630;2022-09-23T18:41:30;101373.78;;;14.29
27715;BMP280;16051;53.024;8.630;2022-09-23T18:45:53;101370.53;;;14.30
27715;BMP280;16051;53.024;8.630;2022-09-23T18:50:05;101378.09;;;14.30
27715;BMP280;16051;53.024;8.630;2022-09-23T18:54:31;101378.59;;;14.28
27715;BMP280;16051;53.024;8.630;2022-09-23T18:59:05;101380.50;;;14.22
27715;BMP280;16051;53.024;8.630;2022-09-23T19:03:20;101377.25;;;14.24
27715;BMP280;16051;53.024;8.630;2022-09-23T19:07:25;101375.44;;;14.21
27715;BMP280;16051;53.024;8.630;2022-09-23T19:11:27;101377.16;;;14.18
27715;BMP280;16051;53.024;8.630;2022-09-23T19:15:36;101369.31;;;14.17
27715;BMP280;16051;53.024;8.630;2022-09-23T19:19:38;101365.97;;;14.13
27715;BMP280;16051;53.024;8.630;2022-09-23T19:23:49;101369.97;;;14.12
27715;BMP280;16051;53.024;8.630;2022-09-23T19:28:11;101360.41;;;14.13
27715;BMP280;16051;53.024;8.630;2022-09-23T19:32:22;101363.66;;;14.11
27715;BMP280;16051;53.024;8.630;2022-09-23T19:36:36;101362.13;;;14.10
27715;BMP280;16051;53.024;8.630;2022-09-23T19:40:40;101363.84;;;14.08
27715;BMP280;16051;53.024;8.630;2022-09-23T19:44:42;101360.03;;;14.05
27715;BMP280;16051;53.024;8.630;2022-09-23T19:49:00;101363.06;;;14.07
27715;BMP280;16051;53.024;8.630;2022-09-23T19:53:04;101357.91;;;14.00
27715;BMP280;16051;53.024;8.630;2022-09-23T19:57:19;101349.56;;;14.00
27715;BMP280;16051;53.024;8.630;2022-09-23T20:01:24;101353.13;;;14.01
27715;BMP280;16051;53.024;8.630;2022-09-23T20:05:34;101350.28;;;13.95
27715;BMP280;16051;53.024;8.630;2022-09-23T20:09:42;101347.97;;;13.94
27715;BMP280;16051;53.024;8.630;2022-09-23T20:13:55;101345.09;;;13.88
27715;BMP280;16051;53.024;8.630;2022-09-23T20:18:00;101342.78;;;13.87
27715;BMP280;16051;53.024;8.630;2022-09-23T20:22:02;101336.78;;;13.88
27715;BMP280;16051;53.024;8.630;2022-09-23T20:26:30;101338.78;;;13.88
27715;BMP280;16051;53.024;8.630;2022-09-23T20:30:57;101348.47;;;13.92
27715;BMP280;16051;53.024;8.630;2022-09-23T20:34:59;101350.66;;;13.88
27715;BMP280;16051;53.024;8.630;2022-09-23T20:39:09;101345.56;;;13.87
27715;BMP280;16051;53.024;8.630;2022-09-23T20:43:16;101337.53;;;13.89
27715;BMP280;16051;53.024;8.630;2022-09-23T20:47:23;101338.28;;;13.89
27715;BMP280;16051;53.024;8.630;2022-09-23T20:51:31;101341.56;;;13.88
27715;BMP280;16051;53.024;8.630;2022-09-23T20:55:48;101335.22;;;13.87
27715;BMP280;16051;53.024;8.630;2022-09-23T21:00:03;101334.47;;;13.87
27715;BMP280;16051;53.024;8.630;2022-09-23T21:04:18;101328.34;;;13.82
27715;BMP280;16051;53.024;8.630;2022-09-23T21:08:20;101319.44;;;13.78
27715;BMP280;16051;53.024;8.630;2022-09-23T21:12:36;101327.00;;;13.78
27715;BMP280;16051;53.024;8.630;2022-09-23T21:16:38;101328.53;;;13.79
27715;BMP280;16051;53.024;8.630;2022-09-23T21:20:42;101310.72;;;13.71
27715;BMP280;16051;53.024;8.630;2022-09-23T21:24:51;101308.44;;;13.69
27715;BMP280;16051;53.024;8.630;2022-09-23T21:28:56;101315.53;;;13.70
27715;BMP280;16051;53.024;8.630;2022-09-23T21:32:59;101321.28;;;13.67
27715;BMP280;16051;53.024;8.630;2022-09-23T21:37:03;101318.69;;;13.63
27715;BMP280;16051;53.024;8.630;2022-09-23T21:41:09;101324.69;;;13.62
27715;BMP280;16051;53.024;8.630;2022-09-23T21:45:13;101329.47;;;13.61
27715;BMP280;16051;53.024;8.630;2022-09-23T21:49:15;101331.47;;;13.61
27715;BMP280;16051;53.024;8.630;2022-09-23T21:53:21;101338.75;;;13.58
27715;BMP280;16051;53.024;8.630;2022-09-23T21:57:23;101337.13;;;13.52
27715;BMP280;16051;53.024;8.630;2022-09-23T22:01:28;101334.81;;;13.50
27715;BMP280;16051;53.024;8.630;2022-09-23T22:05:30;101333.78;;;13.48
27715;BMP280;16051;53.024;8.630;2022-09-23T22:09:34;101331.47;;;13.46
27715;BMP280;16051;53.024;8.630;2022-09-23T22:13:36;101330.69;;;13.46
27715;BMP280;16051;53.024;8.630;2022-09-23T22:17:38;101335.19;;;13.43
27715;BMP280;16051;53.024;8.630;2022-09-23T22:21:43;101330.69;;;13.46
27715;BMP280;16051;53.024;8.630;2022-09-23T22:25:47;101341.53;;;13.44
27715;BMP280;16051;53.024;8.630;2022-09-23T22:29:49;101347.84;;;13.44
27715;BMP280;16051;53.024;8.630;2022-09-23T22:34:09;101338.75;;;13.44
27715;BMP280;16051;53.024;8.630;2022-09-23T22:38:11;101342.28;;;13.44
27715;BMP280;16051;53.024;8.630;2022-09-23T22:42:17;101333.47;;;13.46
27715;BMP280;16051;53.024;8.630;2022-09-23T22:46:22;101337.19;;;13.43
27715;BMP280;16051;53.024;8.630;2022-09-23T22:50:24;101334.25;;;13.46
27715;BMP280;16051;53.024;8.630;2022-09-23T22:54:26;101326.78;;;13.38
27715;BMP280;16051;53.024;8.630;2022-09-23T22:58:30;101327.25;;;13.36
27715;BMP280;16051;53.024;8.630;2022-09-23T23:02:32;101316.34;;;13.32
27715;BMP280;16051;53.024;8.630;2022-09-23T23:06:35;101316.06;;;13.30
27715;BMP280;16051;53.024;8.630;2022-09-23T23:10:37;101298.72;;;13.21
27715;BMP280;16051;53.024;8.630;2022-09-23T23:14:42;101303.78;;;13.22
27715;BMP280;16051;53.024;8.630;2022-09-23T23:18:48;101307.34;;;13.23
27715;BMP280;16051;53.024;8.630;2022-09-23T23:22:50;101295.94;;;13.21
27715;BMP280;16051;53.024;8.630;2022-09-23T23:26:52;101288.88;;;13.20
27715;BMP280;16051;53.024;8.630;2022-09-23T23:31:02;101289.34;;;13.18
27715;BMP280;16051;53.024;8.630;2022-09-23T23:35:05;101280.31;;;13.09
27715;BMP280;16051;53.024;8.630;2022-09-23T23:39:08;101281.56;;;13.08
27715;BMP280;16051;53.024;8.630;2022-09-23T23:43:12;101280.78;;;13.07
27715;BMP280;16051;53.024;8.630;2022-09-23T23:47:16;101282.78;;;13.07
27715;BMP280;16051;53.024;8.630;2022-09-23T23:51:18;101277.72;;;13.05
27715;BMP280;16051;53.024;8.630;2022-09-23T23:55:21;101272.94;;;13.06
27715;BMP280;16051;53.024;8.630;2022-09-23T23:59:23;101279.25;;;13.06
